Auburn Junction, Indiana
Current Conditions -  °F | °C
As of 3:15 PM on Monday 26 Jan 2015 (Local Time) from KGWB Reporting Station
Broken Clouds Broken Clouds  
Wind Chill: -3°   Ceiling: 8500
Heat Index: -3°   Visibility: 10mi
Dew Point: -15°   Wind: 0mph
Humidity: 40%   Direction: NA
Pressure: 29.89"   Gusts: NA
Location:  41.3419°N, 85.0357°W
Report Text: KGWB 262015Z AUTO 00000KT 10SM BKN085 M03/M15 A2989 RMK AO2
Loading
Personal Weather Stations






























Interactive Weather Map New forecast layout! Learn more

10-Day Weather Forecast

Advertisements
Track Severe Weather on mobile